createdAt,value
2019-05-26T00:00:44.769Z,9.50
2019-05-26T00:03:13.408Z,9.40
2019-05-26T00:05:42.041Z,8.53
2019-05-26T00:08:10.698Z,8.55
2019-05-26T00:10:39.330Z,7.58
2019-05-26T00:13:07.832Z,7.55
2019-05-26T00:15:36.508Z,7.55
2019-05-26T00:18:05.323Z,7.33
2019-05-26T00:20:33.964Z,7.67
2019-05-26T00:23:02.566Z,7.03
2019-05-26T00:25:31.193Z,7.65
2019-05-26T00:27:59.841Z,8.15
2019-05-26T00:30:28.533Z,8.03
2019-05-26T00:32:57.217Z,8.68
2019-05-26T00:35:25.791Z,7.33
2019-05-26T00:37:54.468Z,9.18
2019-05-26T00:40:23.201Z,9.48
2019-05-26T00:42:51.791Z,10.10
2019-05-26T00:45:20.633Z,9.90
2019-05-26T00:47:49.284Z,11.08
2019-05-26T00:50:18.148Z,9.98
2019-05-26T00:52:46.779Z,9.63
2019-05-26T00:55:15.528Z,8.95
2019-05-26T00:57:44.125Z,9.35
2019-05-26T01:00:13.160Z,8.43
2019-05-26T01:02:41.795Z,7.58
2019-05-26T01:05:11.201Z,8.40
2019-05-26T01:07:39.788Z,8.00
2019-05-26T01:10:10.245Z,7.92
2019-05-26T01:12:38.922Z,8.10
2019-05-26T01:15:08.581Z,9.28
2019-05-26T01:17:38.210Z,8.03
2019-05-26T01:20:07.196Z,9.18
2019-05-26T01:22:35.841Z,8.03
2019-05-26T01:25:07.086Z,8.33
2019-05-26T01:27:35.739Z,8.70
2019-05-26T01:30:07.100Z,9.58
2019-05-26T01:32:35.810Z,8.58
2019-05-26T01:35:07.830Z,8.35
2019-05-26T01:37:38.440Z,8.98
2019-05-26T01:40:07.930Z,9.45
2019-05-26T01:42:36.586Z,10.15
2019-05-26T01:45:07.096Z,9.95
2019-05-26T01:47:35.717Z,9.65
2019-05-26T01:50:07.101Z,8.43
2019-05-26T01:52:35.737Z,8.60
2019-05-26T01:55:08.156Z,9.45
2019-05-26T01:57:36.924Z,9.95
2019-05-26T02:00:07.077Z,9.78
2019-05-26T02:02:35.751Z,9.98
2019-05-26T02:05:05.924Z,11.45
2019-05-26T02:07:34.650Z,10.00
2019-05-26T02:10:04.574Z,9.73
2019-05-26T02:12:33.168Z,9.18
2019-05-26T02:15:01.816Z,8.63
2019-05-26T02:17:30.458Z,8.55
2019-05-26T02:19:59.937Z,8.40
2019-05-26T02:22:28.613Z,9.18
2019-05-26T02:24:57.269Z,9.83
2019-05-26T02:27:25.844Z,11.93
2019-05-26T02:29:54.458Z,11.40
2019-05-26T02:32:22.944Z,12.15
2019-05-26T02:34:51.557Z,12.73
2019-05-26T02:37:20.196Z,12.63
2019-05-26T02:39:48.790Z,12.58
2019-05-26T02:42:17.475Z,12.93
2019-05-26T02:44:46.126Z,12.40
2019-05-26T02:47:14.768Z,11.70
2019-05-26T02:49:43.475Z,12.63
2019-05-26T02:52:12.129Z,12.28
2019-05-26T02:54:40.763Z,11.73
2019-05-26T02:57:09.315Z,12.88
2019-05-26T02:59:37.963Z,13.08
2019-05-26T03:02:06.594Z,11.83
2019-05-26T03:04:35.265Z,13.35
2019-05-26T03:07:04.200Z,12.45
2019-05-26T03:09:34.408Z,11.57
2019-05-26T03:12:04.101Z,10.78
2019-05-26T03:14:34.921Z,9.48
2019-05-26T03:17:03.766Z,8.68
2019-05-26T03:19:35.071Z,7.90
2019-05-26T03:22:05.089Z,7.20
2019-05-26T03:24:34.014Z,7.70
2019-05-26T03:27:02.857Z,7.90
2019-05-26T03:29:31.362Z,7.60
2019-05-26T03:31:59.966Z,7.47
2019-05-26T03:34:28.583Z,7.53
2019-05-26T03:36:57.188Z,7.15
2019-05-26T03:39:42.688Z,6.47
2019-05-26T03:41:56.359Z,7.90
2019-05-26T03:44:24.981Z,8.10
2019-05-26T03:46:53.541Z,8.40
2019-05-26T03:49:22.143Z,7.30
2019-05-26T03:51:50.798Z,7.95
2019-05-26T03:54:19.431Z,7.40
2019-05-26T03:56:48.103Z,6.47
2019-05-26T03:59:16.667Z,6.45
2019-05-26T04:01:45.250Z,6.78
2019-05-26T04:04:13.845Z,5.80
2019-05-26T04:06:42.478Z,6.42
2019-05-26T04:09:11.045Z,6.00
2019-05-26T04:11:39.792Z,7.20
2019-05-26T04:14:08.354Z,7.95
2019-05-26T04:16:36.919Z,8.58
2019-05-26T04:19:05.581Z,7.87
2019-05-26T04:21:34.958Z,4.78
2019-05-26T04:24:03.536Z,6.15
2019-05-26T04:26:32.064Z,6.92
2019-05-26T04:29:00.624Z,7.30
2019-05-26T04:31:29.272Z,7.65
2019-05-26T04:33:57.908Z,6.97
2019-05-26T04:36:26.544Z,5.87
2019-05-26T04:38:55.117Z,5.62
2019-05-26T04:41:23.783Z,5.05
2019-05-26T04:43:52.338Z,5.47
2019-05-26T04:46:20.923Z,5.00
2019-05-26T04:48:49.506Z,5.53
2019-05-26T04:51:18.132Z,4.70
2019-05-26T04:53:46.701Z,4.17
2019-05-26T04:56:15.369Z,4.72
2019-05-26T04:58:43.859Z,4.17
2019-05-26T05:01:12.428Z,4.65
2019-05-26T05:03:41.026Z,4.53
2019-05-26T05:06:09.663Z,4.40
2019-05-26T05:08:38.242Z,5.03
2019-05-26T05:11:06.763Z,3.42
2019-05-26T05:13:35.393Z,4.20
2019-05-26T05:16:04.031Z,3.80
2019-05-26T05:18:32.734Z,3.55
2019-05-26T05:21:01.296Z,4.75
2019-05-26T05:23:29.861Z,3.52
2019-05-26T05:25:58.541Z,4.10
2019-05-26T05:28:27.147Z,3.10
2019-05-26T05:30:55.771Z,4.42
2019-05-26T05:33:24.451Z,5.53
2019-05-26T05:35:53.083Z,4.65
2019-05-26T05:38:21.769Z,4.67
2019-05-26T05:40:59.410Z,4.25
2019-05-26T05:43:20.748Z,4.25
2019-05-26T05:45:49.384Z,4.05
2019-05-26T05:48:18.056Z,3.83
2019-05-26T05:50:46.683Z,2.77
2019-05-26T05:53:15.243Z,2.65
2019-05-26T05:55:43.846Z,2.92
2019-05-26T05:58:12.420Z,2.15
2019-05-26T06:00:41.051Z,3.12
2019-05-26T06:03:09.648Z,2.67
2019-05-26T06:05:38.536Z,3.42
2019-05-26T06:08:07.181Z,3.72
2019-05-26T06:10:35.720Z,4.00
2019-05-26T06:13:04.391Z,3.50
2019-05-26T06:15:33.043Z,3.83
2019-05-26T06:18:01.652Z,4.05
2019-05-26T06:20:30.155Z,3.05
2019-05-26T06:22:59.034Z,2.90
2019-05-26T06:25:27.819Z,2.60
2019-05-26T06:27:56.622Z,2.45
2019-05-26T06:30:26.814Z,2.80
2019-05-26T06:32:55.421Z,3.62
2019-05-26T06:35:24.235Z,3.67
2019-05-26T06:37:52.878Z,2.65
2019-05-26T06:40:21.555Z,4.12
2019-05-26T06:42:50.124Z,4.00
2019-05-26T06:45:21.436Z,3.42
2019-05-26T06:47:50.127Z,3.47
2019-05-26T06:50:19.172Z,2.80
2019-05-26T06:52:47.740Z,3.10
2019-05-26T06:55:16.417Z,2.52
2019-05-26T06:57:44.990Z,3.10
2019-05-26T07:00:14.236Z,2.42
2019-05-26T07:02:42.835Z,3.00
2019-05-26T07:05:11.576Z,3.22
2019-05-26T07:07:40.138Z,3.37
2019-05-26T07:10:09.923Z,2.90
2019-05-26T07:12:38.632Z,2.87
2019-05-26T07:15:08.391Z,3.22
2019-05-26T07:17:37.105Z,3.30
2019-05-26T07:20:09.133Z,3.75
2019-05-26T07:22:37.728Z,3.65
2019-05-26T07:25:08.621Z,3.15
2019-05-26T07:27:37.171Z,3.87
2019-05-26T07:30:07.114Z,3.60
2019-05-26T07:32:35.716Z,3.65
2019-05-26T07:35:07.930Z,2.42
2019-05-26T07:37:36.488Z,2.65
2019-05-26T07:40:05.870Z,3.15
2019-05-26T07:42:34.611Z,3.35
2019-05-26T07:45:03.353Z,3.12
2019-05-26T07:47:32.002Z,2.98
2019-05-26T07:50:00.600Z,3.35
2019-05-26T07:52:29.158Z,2.02
2019-05-26T07:54:57.853Z,2.60
2019-05-26T07:57:26.491Z,3.00
2019-05-26T07:59:55.180Z,3.42
2019-05-26T08:02:23.862Z,3.02
2019-05-26T08:04:52.498Z,2.22
2019-05-26T08:07:23.206Z,2.92
2019-05-26T08:09:51.477Z,2.50
2019-05-26T08:12:26.973Z,2.50
2019-05-26T08:14:50.327Z,2.92
2019-05-26T08:17:18.963Z,2.20
2019-05-26T08:19:47.523Z,2.47
2019-05-26T08:22:16.136Z,2.55
2019-05-26T08:24:44.804Z,2.70
2019-05-26T08:27:13.349Z,2.40
2019-05-26T08:29:41.883Z,2.22
2019-05-26T08:32:10.479Z,1.90
2019-05-26T08:34:39.139Z,2.10
2019-05-26T08:37:07.791Z,1.60
2019-05-26T08:39:36.394Z,1.50
2019-05-26T08:42:05.125Z,1.27
2019-05-26T08:44:33.872Z,1.35
2019-05-26T08:47:02.440Z,1.67
2019-05-26T08:49:31.070Z,1.72
2019-05-26T08:51:59.673Z,1.42
2019-05-26T08:54:28.303Z,2.20
2019-05-26T08:56:56.883Z,1.57
2019-05-26T08:59:25.604Z,2.35
2019-05-26T09:01:54.205Z,1.70
2019-05-26T09:04:22.905Z,1.80
2019-05-26T09:06:51.502Z,1.20
2019-05-26T09:09:20.128Z,1.80
2019-05-26T09:11:48.699Z,1.40
2019-05-26T09:14:17.316Z,1.40
2019-05-26T09:16:45.952Z,1.65
2019-05-26T09:19:14.591Z,1.60
2019-05-26T09:21:43.194Z,1.67
2019-05-26T09:24:11.866Z,1.30
2019-05-26T09:26:40.428Z,0.95
2019-05-26T09:29:09.116Z,1.05
2019-05-26T09:31:37.673Z,1.07
2019-05-26T09:34:06.501Z,1.00
2019-05-26T09:36:35.089Z,0.80
2019-05-26T09:39:05.468Z,1.00
2019-05-26T09:41:34.110Z,0.70
2019-05-26T09:44:02.745Z,0.80
2019-05-26T09:46:31.390Z,0.90
2019-05-26T09:49:01.080Z,0.90
2019-05-26T09:51:29.742Z,0.70
2019-05-26T09:54:01.612Z,0.70
2019-05-26T09:56:28.690Z,0.88
2019-05-26T09:58:57.275Z,0.60
2019-05-26T10:01:25.945Z,0.75
2019-05-26T10:03:54.597Z,0.60
2019-05-26T10:06:23.146Z,0.60
2019-05-26T10:08:51.825Z,0.60
2019-05-26T10:11:20.518Z,0.68
2019-05-26T10:13:49.025Z,0.50
2019-05-26T10:16:17.672Z,0.50
2019-05-26T10:18:46.283Z,0.60
2019-05-26T10:21:14.948Z,0.70
2019-05-26T10:23:43.547Z,0.70
2019-05-26T10:26:12.228Z,0.50
2019-05-26T10:28:40.865Z,0.55
2019-05-26T10:31:09.435Z,0.60
2019-05-26T10:33:37.977Z,0.50
2019-05-26T10:36:06.555Z,0.40
2019-05-26T10:38:35.162Z,0.50
2019-05-26T10:41:03.848Z,0.40
2019-05-26T10:43:46.363Z,0.50
2019-05-26T10:46:02.708Z,0.40
2019-05-26T10:48:31.300Z,0.40
2019-05-26T10:50:59.865Z,0.60
2019-05-26T10:53:28.432Z,0.60
2019-05-26T10:55:57.039Z,0.60
2019-05-26T10:58:25.613Z,0.50
2019-05-26T11:00:54.180Z,0.60
2019-05-26T11:03:22.852Z,0.60
2019-05-26T11:05:51.412Z,0.50
2019-05-26T11:08:19.983Z,0.60
2019-05-26T11:10:48.591Z,0.60
2019-05-26T11:13:17.240Z,0.55
2019-05-26T11:15:46.465Z,0.50
2019-05-26T11:18:15.138Z,0.57
2019-05-26T11:20:43.977Z,0.70
2019-05-26T11:23:12.470Z,0.88
2019-05-26T11:25:41.350Z,0.55
2019-05-26T11:28:09.910Z,0.60
2019-05-26T11:30:38.543Z,0.80
2019-05-26T11:33:07.215Z,0.60
2019-05-26T11:35:35.780Z,0.72
2019-05-26T11:38:04.609Z,0.62
2019-05-26T11:40:33.216Z,0.60
2019-05-26T11:43:15.623Z,1.00
2019-05-26T11:45:32.026Z,0.60
2019-05-26T11:48:00.746Z,0.60
2019-05-26T11:50:29.305Z,0.50
2019-05-26T11:52:57.872Z,0.70
2019-05-26T11:55:27.886Z,0.60
2019-05-26T11:57:56.578Z,0.50
2019-05-26T12:00:25.416Z,0.50
2019-05-26T12:02:53.969Z,0.40
2019-05-26T12:05:22.569Z,0.50
2019-05-26T12:07:51.211Z,0.50
2019-05-26T12:10:20.139Z,0.75
2019-05-26T12:12:48.631Z,0.50
2019-05-26T12:15:17.982Z,0.60
2019-05-26T12:17:46.653Z,0.60
2019-05-26T12:20:15.677Z,0.60
2019-05-26T12:22:44.175Z,0.60
2019-05-26T12:25:13.151Z,0.50
2019-05-26T12:27:41.875Z,0.60
2019-05-26T12:30:11.255Z,0.78
2019-05-26T12:32:39.865Z,0.60
2019-05-26T12:35:09.694Z,0.50
2019-05-26T12:37:38.333Z,0.80
2019-05-26T12:40:07.901Z,0.68
2019-05-26T12:42:36.539Z,0.60
2019-05-26T12:45:09.621Z,0.72
2019-05-26T12:47:38.309Z,0.80
2019-05-26T12:50:08.355Z,0.88
2019-05-26T12:52:37.073Z,1.00
2019-05-26T12:55:09.431Z,0.60
2019-05-26T12:57:38.516Z,0.60
2019-05-26T13:00:08.414Z,0.68
2019-05-26T13:02:37.104Z,0.55
2019-05-26T13:05:07.374Z,0.70
2019-05-26T13:07:35.866Z,0.70
2019-05-26T13:10:07.479Z,0.60
2019-05-26T13:12:36.142Z,1.25
2019-05-26T13:15:07.787Z,0.50
2019-05-26T13:17:36.392Z,0.50
2019-05-26T13:20:07.294Z,0.80
2019-05-26T13:22:35.984Z,0.70
2019-05-26T13:25:07.662Z,0.68
2019-05-26T13:27:36.298Z,0.70
2019-05-26T13:30:09.747Z,0.50
2019-05-26T13:32:38.338Z,0.60
2019-05-26T13:35:11.315Z,0.80
2019-05-26T13:37:39.947Z,0.72
2019-05-26T13:40:09.197Z,1.12
2019-05-26T13:42:37.770Z,0.50
2019-05-26T13:45:21.795Z,0.60
2019-05-26T13:47:41.288Z,0.60
2019-05-26T13:50:10.327Z,0.60
2019-05-26T13:52:38.870Z,0.60
2019-05-26T13:55:10.934Z,0.60
2019-05-26T13:57:39.703Z,0.65
2019-05-26T14:00:14.337Z,0.60
2019-05-26T14:02:42.988Z,0.60
2019-05-26T14:05:12.719Z,0.60
2019-05-26T14:07:41.347Z,0.50
2019-05-26T14:10:10.324Z,0.50
2019-05-26T14:12:38.949Z,0.55
2019-05-26T14:15:09.263Z,0.50
2019-05-26T14:17:39.124Z,0.47
2019-05-26T14:20:10.033Z,0.60
2019-05-26T14:22:38.759Z,0.68
2019-05-26T14:25:08.815Z,0.70
2019-05-26T14:27:37.377Z,0.70
2019-05-26T14:30:07.013Z,0.70
2019-05-26T14:32:35.704Z,0.60
2019-05-26T14:35:05.640Z,0.62
2019-05-26T14:37:34.280Z,0.70
2019-05-26T14:40:02.879Z,0.60
2019-05-26T14:42:31.438Z,0.57
2019-05-26T14:45:03.679Z,0.98
2019-05-26T14:47:30.429Z,0.70
2019-05-26T14:49:59.055Z,0.60
2019-05-26T14:52:27.638Z,0.60
2019-05-26T14:54:56.353Z,0.50
2019-05-26T14:57:25.068Z,0.50
2019-05-26T14:59:53.642Z,0.70
2019-05-26T15:02:22.234Z,0.60
2019-05-26T15:04:50.803Z,0.60
2019-05-26T15:07:20.227Z,0.78
2019-05-26T15:09:48.758Z,0.60
2019-05-26T15:12:17.267Z,0.55
2019-05-26T15:14:45.888Z,0.60
2019-05-26T15:17:14.554Z,0.60
2019-05-26T15:19:43.192Z,0.50
2019-05-26T15:22:11.824Z,0.50
2019-05-26T15:24:40.461Z,0.70
2019-05-26T15:27:09.017Z,0.80
2019-05-26T15:29:37.650Z,0.90
2019-05-26T15:32:06.323Z,0.72
2019-05-26T15:34:34.823Z,1.30
2019-05-26T15:37:03.321Z,0.80
2019-05-26T15:39:32.016Z,0.80
2019-05-26T15:42:00.716Z,1.05
2019-05-26T15:44:29.209Z,0.80
2019-05-26T15:46:57.698Z,0.65
2019-05-26T15:49:26.339Z,0.60
2019-05-26T15:51:55.025Z,0.42
2019-05-26T15:54:23.573Z,0.53
2019-05-26T15:56:52.139Z,0.70
2019-05-26T15:59:20.817Z,0.50
2019-05-26T16:01:49.346Z,0.60
2019-05-26T16:04:17.981Z,0.68
2019-05-26T16:06:46.645Z,0.60
2019-05-26T16:09:15.145Z,0.47
2019-05-26T16:11:43.853Z,0.70
2019-05-26T16:14:12.534Z,0.60
2019-05-26T16:16:42.015Z,0.50
2019-05-26T16:19:10.688Z,0.80
2019-05-26T16:21:39.349Z,0.60
2019-05-26T16:24:07.981Z,0.70
2019-05-26T16:26:36.646Z,0.70
2019-05-26T16:29:05.802Z,1.10
2019-05-26T16:31:34.437Z,1.02
2019-05-26T16:34:03.082Z,1.30
2019-05-26T16:36:31.759Z,0.80
2019-05-26T16:39:00.322Z,0.70
2019-05-26T16:41:29.024Z,0.80
2019-05-26T16:43:57.560Z,0.68
2019-05-26T16:46:26.108Z,0.80
2019-05-26T16:48:55.142Z,1.17
2019-05-26T16:51:23.841Z,0.82
2019-05-26T16:53:52.321Z,0.98
2019-05-26T16:56:20.950Z,1.00
2019-05-26T16:58:49.613Z,0.80
2019-05-26T17:01:18.327Z,0.62
2019-05-26T17:03:46.828Z,1.07
2019-05-26T17:06:15.497Z,1.00
2019-05-26T17:08:44.123Z,0.78
2019-05-26T17:11:12.780Z,0.82
2019-05-26T17:13:41.488Z,0.60
2019-05-26T17:16:10.136Z,0.68
2019-05-26T17:18:39.155Z,0.75
2019-05-26T17:21:07.798Z,0.88
2019-05-26T17:23:36.440Z,0.80
2019-05-26T17:26:05.098Z,1.47
2019-05-26T17:28:33.725Z,1.35
2019-05-26T17:31:02.347Z,1.17
2019-05-26T17:33:30.913Z,0.88
2019-05-26T17:35:59.586Z,1.10
2019-05-26T17:38:28.230Z,2.90
2019-05-26T17:40:56.870Z,1.22
2019-05-26T17:43:25.462Z,1.45
2019-05-26T17:45:54.101Z,5.85
2019-05-26T17:48:22.748Z,3.83
2019-05-26T17:50:51.431Z,4.75
2019-05-26T17:53:19.930Z,2.52
2019-05-26T17:55:48.562Z,2.25
2019-05-26T17:58:17.180Z,1.60
2019-05-26T18:00:45.750Z,2.00
2019-05-26T18:03:14.372Z,1.40
2019-05-26T18:05:42.973Z,1.10
2019-05-26T18:08:11.536Z,1.17
2019-05-26T18:10:40.106Z,2.12
2019-05-26T18:13:08.767Z,1.62
2019-05-26T18:15:37.500Z,3.00
2019-05-26T18:18:06.056Z,1.32
2019-05-26T18:20:34.654Z,1.65
2019-05-26T18:23:03.212Z,1.32
2019-05-26T18:25:31.833Z,1.15
2019-05-26T18:28:00.395Z,1.35
2019-05-26T18:30:29.011Z,1.57
2019-05-26T18:32:57.640Z,0.70
2019-05-26T18:35:26.303Z,0.60
2019-05-26T18:37:54.930Z,0.60
2019-05-26T18:40:23.569Z,0.50
2019-05-26T18:42:52.097Z,0.57
2019-05-26T18:45:20.774Z,0.85
2019-05-26T18:48:01.890Z,0.60
2019-05-26T18:50:19.772Z,0.50
2019-05-26T18:52:48.467Z,0.60
2019-05-26T18:55:17.128Z,1.10
2019-05-26T18:57:45.757Z,1.27
2019-05-26T19:00:15.164Z,1.42
2019-05-26T19:02:43.885Z,1.25
2019-05-26T19:05:12.823Z,1.30
2019-05-26T19:07:41.466Z,1.40
2019-05-26T19:10:10.435Z,1.02
2019-05-26T19:12:39.083Z,0.85
2019-05-26T19:15:08.421Z,1.20
2019-05-26T19:17:37.093Z,2.52
2019-05-26T19:20:16.363Z,2.50
2019-05-26T19:22:37.909Z,2.35
2019-05-26T19:25:07.101Z,2.37
2019-05-26T19:27:35.597Z,1.60
2019-05-26T19:30:08.459Z,1.67
2019-05-26T19:32:37.099Z,1.75
2019-05-26T19:35:07.602Z,1.87
2019-05-26T19:37:36.160Z,2.00
2019-05-26T19:40:07.362Z,1.60
2019-05-26T19:42:36.095Z,1.80
2019-05-26T19:45:07.335Z,1.95
2019-05-26T19:47:35.890Z,1.75
2019-05-26T19:50:06.652Z,1.77
2019-05-26T19:52:35.286Z,1.92
2019-05-26T19:55:05.767Z,2.27
2019-05-26T19:57:34.439Z,2.75
2019-05-26T20:00:04.679Z,2.22
2019-05-26T20:02:33.180Z,2.75
2019-05-26T20:05:00.712Z,3.20
2019-05-26T20:07:29.392Z,2.77
2019-05-26T20:09:58.116Z,3.42
2019-05-26T20:12:26.724Z,3.52
2019-05-26T20:14:55.360Z,3.33
2019-05-26T20:17:24.029Z,2.75
2019-05-26T20:19:52.624Z,3.22
2019-05-26T20:22:24.388Z,2.98
2019-05-26T20:24:51.462Z,2.75
2019-05-26T20:27:20.077Z,1.62
2019-05-26T20:29:48.716Z,1.80
2019-05-26T20:32:17.285Z,1.17
2019-05-26T20:34:45.889Z,1.25
2019-05-26T20:37:14.517Z,0.70
2019-05-26T20:39:43.091Z,1.00
2019-05-26T20:42:11.693Z,1.80
2019-05-26T20:44:40.269Z,1.35
2019-05-26T20:47:08.898Z,1.52
2019-05-26T20:49:45.350Z,2.42
2019-05-26T20:52:07.765Z,0.85
2019-05-26T20:54:36.415Z,1.07
2019-05-26T20:57:05.072Z,0.80
2019-05-26T20:59:33.638Z,0.70
2019-05-26T21:02:02.210Z,0.70
2019-05-26T21:04:30.946Z,0.90
2019-05-26T21:06:59.530Z,0.80
2019-05-26T21:09:28.035Z,1.50
2019-05-26T21:11:56.651Z,1.00
2019-05-26T21:14:25.322Z,0.80
2019-05-26T21:16:53.903Z,0.80
2019-05-26T21:19:22.587Z,0.85
2019-05-26T21:21:51.256Z,0.70
2019-05-26T21:24:20.016Z,0.65
2019-05-26T21:26:48.631Z,0.60
2019-05-26T21:29:17.281Z,0.65
2019-05-26T21:31:45.839Z,0.50
2019-05-26T21:34:14.554Z,0.60
2019-05-26T21:36:43.203Z,0.60
2019-05-26T21:39:11.844Z,0.50
2019-05-26T21:41:40.526Z,0.80
2019-05-26T21:44:09.038Z,0.85
2019-05-26T21:46:37.600Z,1.00
2019-05-26T21:49:06.306Z,0.70
2019-05-26T21:51:34.940Z,0.80
2019-05-26T21:54:03.552Z,0.80
2019-05-26T21:56:32.200Z,0.98
2019-05-26T21:59:00.757Z,1.10
2019-05-26T22:01:29.704Z,0.90
2019-05-26T22:03:58.343Z,0.90
2019-05-26T22:06:26.972Z,0.85
2019-05-26T22:08:55.587Z,0.88
2019-05-26T22:11:24.151Z,0.80
2019-05-26T22:13:52.794Z,1.20
2019-05-26T22:16:21.455Z,1.25
2019-05-26T22:18:50.102Z,1.05
2019-05-26T22:21:18.664Z,1.35
2019-05-26T22:23:47.271Z,1.52
2019-05-26T22:26:15.759Z,1.40
2019-05-26T22:28:44.252Z,1.50
2019-05-26T22:31:12.898Z,2.00
2019-05-26T22:33:41.579Z,1.57
2019-05-26T22:36:10.135Z,1.30
2019-05-26T22:38:38.692Z,1.52
2019-05-26T22:41:07.255Z,1.22
2019-05-26T22:43:35.891Z,1.50
2019-05-26T22:46:04.533Z,1.87
2019-05-26T22:48:33.055Z,1.67
2019-05-26T22:51:01.818Z,1.72
2019-05-26T22:53:30.512Z,1.62
2019-05-26T22:55:59.142Z,1.70
2019-05-26T22:58:27.632Z,2.10
2019-05-26T23:00:56.339Z,1.80
2019-05-26T23:03:25.085Z,2.12
2019-05-26T23:05:53.638Z,2.45
2019-05-26T23:08:22.201Z,2.30
2019-05-26T23:10:50.799Z,2.65
2019-05-26T23:13:19.466Z,2.55
2019-05-26T23:15:48.040Z,2.55
2019-05-26T23:18:16.634Z,2.30
2019-05-26T23:20:45.194Z,2.80
2019-05-26T23:23:13.828Z,2.60
2019-05-26T23:25:42.490Z,2.37
2019-05-26T23:28:11.062Z,3.10
2019-05-26T23:30:39.553Z,3.00
2019-05-26T23:33:08.253Z,2.83
2019-05-26T23:35:36.889Z,2.80
2019-05-26T23:38:05.567Z,3.33
2019-05-26T23:40:34.138Z,3.62
2019-05-26T23:43:02.674Z,3.08
2019-05-26T23:45:31.271Z,3.22
2019-05-26T23:47:59.907Z,2.95
2019-05-26T23:50:28.473Z,3.30
2019-05-26T23:52:57.060Z,3.12
2019-05-26T23:55:25.611Z,3.25
2019-05-26T23:57:54.171Z,3.90
